createdAt,value
2023-03-26T00:16:00.217Z,2.97
2023-03-26T00:46:03.256Z,2.73
2023-03-26T01:16:07.911Z,2.35
2023-03-26T01:46:10.879Z,1.63
2023-03-26T02:16:14.561Z,1.67
2023-03-26T02:46:17.624Z,1.40
2023-03-26T03:16:21.807Z,1.40
2023-03-26T03:46:24.817Z,1.43
2023-03-26T04:16:28.559Z,1.43
2023-03-26T04:46:31.607Z,1.40
2023-03-26T05:16:34.940Z,1.07
2023-03-26T05:46:37.914Z,1.00
2023-03-26T06:16:41.974Z,1.03
2023-03-26T06:46:44.920Z,1.00
2023-03-26T07:16:49.151Z,1.00
2023-03-26T07:46:52.224Z,1.20
2023-03-26T08:16:55.568Z,1.70
2023-03-26T08:46:58.388Z,1.10
2023-03-26T09:17:02.461Z,0.77
2023-03-26T09:47:05.309Z,0.60
2023-03-26T10:17:08.847Z,0.90
2023-03-26T10:47:11.737Z,0.87
2023-03-26T11:17:40.477Z,0.70
2023-03-26T11:47:38.524Z,0.98
2023-03-26T12:17:42.236Z,1.30
2023-03-26T12:48:01.349Z,1.80
2023-03-26T13:18:07.800Z,1.50
2023-03-26T13:48:10.713Z,1.00
2023-03-26T14:18:14.852Z,0.88
2023-03-26T14:48:17.981Z,0.80
2023-03-26T15:18:22.255Z,1.20
2023-03-26T15:48:25.125Z,0.90
2023-03-26T16:18:29.498Z,1.70
2023-03-26T16:48:32.447Z,1.10
2023-03-26T17:18:36.557Z,1.30
2023-03-26T17:48:39.460Z,1.45
2023-03-26T18:18:43.484Z,1.33
2023-03-26T18:48:46.432Z,2.95
2023-03-26T19:18:50.385Z,3.80
2023-03-26T19:48:53.596Z,4.30
2023-03-26T20:18:58.204Z,4.10
2023-03-26T20:49:15.226Z,4.70
2023-03-26T21:19:18.609Z,5.50
2023-03-26T21:49:21.490Z,7.30
2023-03-26T22:19:25.047Z,6.35
2023-03-26T22:49:28.034Z,4.03
2023-03-26T23:19:31.624Z,4.10
2023-03-26T23:49:34.466Z,4.65
